KTHA/THA METAR and TAF weather

Enter ICAO airport designator
Station Type Date Time Source
KTHA METAR 2020/11/28 19:15 UTC NOAA

KTHA 281915Z AUTO 33005KT 10SM CLR 12/05 A3015 RMK A01


Station Type Date Time Source
KTHA Decoded METAR 2020/11/28 19:15 UTC NOAA

Station name not available
Nov 28, 2020 - 02:15 PM EST / 2020.11.28 1915 UTC
Wind: from the NNW (330 degrees) at 6 MPH (5 KT):0
Visibility: 10 mile(s):0
Sky conditions: clear
Temperature: 53 F (12 C)
Dew Point: 41 F (5 C)
Relative Humidity: 62%
Pressure (altimeter): 30.15 in. Hg (1020 hPa)
ob: KTHA 281915Z AUTO 33005KT 10SM CLR 12/05 A3015 RMK A01
cycle: 19

Station Type Date Time Source
KTHA TAF UTC NOAA

Error!

Example: see airport list